sensor_id;sensor_type;location;lat;lon;timestamp;P1;durP1;ratioP1;P2;durP2;ratioP2
28862;SDS011;15994;51.796;13.006;2023-04-25T00:00:56;10.43;;;5.78;;
28862;SDS011;15994;51.796;13.006;2023-04-25T00:03:22;6.95;;;5.72;;
28862;SDS011;15994;51.796;13.006;2023-04-25T00:05:50;9.60;;;6.03;;
28862;SDS011;15994;51.796;13.006;2023-04-25T00:08:17;9.43;;;5.93;;
28862;SDS011;15994;51.796;13.006;2023-04-25T00:10:44;11.43;;;6.60;;
28862;SDS011;15994;51.796;13.006;2023-04-25T00:13:10;8.88;;;5.88;;
28862;SDS011;15994;51.796;13.006;2023-04-25T00:15:37;8.52;;;6.40;;
28862;SDS011;15994;51.796;13.006;2023-04-25T00:18:03;10.00;;;6.47;;
28862;SDS011;15994;51.796;13.006;2023-04-25T00:20:31;10.65;;;6.22;;
28862;SDS011;15994;51.796;13.006;2023-04-25T00:22:57;9.77;;;6.32;;
28862;SDS011;15994;51.796;13.006;2023-04-25T00:25:24;8.43;;;6.22;;
28862;SDS011;15994;51.796;13.006;2023-04-25T00:27:51;8.45;;;6.10;;
28862;SDS011;15994;51.796;13.006;2023-04-25T00:30:17;8.85;;;5.90;;
28862;SDS011;15994;51.796;13.006;2023-04-25T00:32:44;10.68;;;6.30;;
28862;SDS011;15994;51.796;13.006;2023-04-25T00:35:10;9.48;;;5.85;;
28862;SDS011;15994;51.796;13.006;2023-04-25T00:37:37;10.65;;;6.18;;
28862;SDS011;15994;51.796;13.006;2023-04-25T00:40:06;8.07;;;5.85;;
28862;SDS011;15994;51.796;13.006;2023-04-25T00:42:34;10.63;;;6.03;;
28862;SDS011;15994;51.796;13.006;2023-04-25T00:45:02;9.38;;;5.55;;
28862;SDS011;15994;51.796;13.006;2023-04-25T00:47:31;8.27;;;5.90;;
28862;SDS011;15994;51.796;13.006;2023-04-25T00:49:59;8.02;;;5.97;;
28862;SDS011;15994;51.796;13.006;2023-04-25T00:52:25;9.27;;;5.55;;
28862;SDS011;15994;51.796;13.006;2023-04-25T00:54:52;9.25;;;5.40;;
28862;SDS011;15994;51.796;13.006;2023-04-25T00:57:18;10.70;;;5.78;;
28862;SDS011;15994;51.796;13.006;2023-04-25T00:59:45;8.57;;;5.45;;
28862;SDS011;15994;51.796;13.006;2023-04-25T01:02:12;8.65;;;5.68;;
28862;SDS011;15994;51.796;13.006;2023-04-25T01:04:38;8.02;;;5.63;;
28862;SDS011;15994;51.796;13.006;2023-04-25T01:07:05;7.20;;;5.45;;
28862;SDS011;15994;51.796;13.006;2023-04-25T01:09:32;9.35;;;5.43;;
28862;SDS011;15994;51.796;13.006;2023-04-25T01:11:59;8.15;;;5.35;;
28862;SDS011;15994;51.796;13.006;2023-04-25T01:14:26;8.70;;;5.82;;
28862;SDS011;15994;51.796;13.006;2023-04-25T01:16:52;9.02;;;5.60;;
28862;SDS011;15994;51.796;13.006;2023-04-25T01:19:19;8.07;;;5.90;;
28862;SDS011;15994;51.796;13.006;2023-04-25T01:21:46;8.95;;;5.90;;
28862;SDS011;15994;51.796;13.006;2023-04-25T01:24:13;9.50;;;5.60;;
28862;SDS011;15994;51.796;13.006;2023-04-25T01:26:40;9.52;;;6.03;;
28862;SDS011;15994;51.796;13.006;2023-04-25T01:29:09;12.52;;;5.57;;
28862;SDS011;15994;51.796;13.006;2023-04-25T01:31:36;7.28;;;5.57;;
28862;SDS011;15994;51.796;13.006;2023-04-25T01:34:03;8.65;;;5.53;;
28862;SDS011;15994;51.796;13.006;2023-04-25T01:36:30;9.25;;;5.70;;
28862;SDS011;15994;51.796;13.006;2023-04-25T01:38:56;8.65;;;5.25;;
28862;SDS011;15994;51.796;13.006;2023-04-25T01:41:23;8.77;;;5.38;;
28862;SDS011;15994;51.796;13.006;2023-04-25T01:43:50;6.75;;;5.25;;
28862;SDS011;15994;51.796;13.006;2023-04-25T01:46:16;8.75;;;5.50;;
28862;SDS011;15994;51.796;13.006;2023-04-25T01:48:43;9.52;;;5.70;;
28862;SDS011;15994;51.796;13.006;2023-04-25T01:51:10;8.27;;;5.50;;
28862;SDS011;15994;51.796;13.006;2023-04-25T01:53:38;9.13;;;5.53;;
28862;SDS011;15994;51.796;13.006;2023-04-25T01:56:05;10.00;;;5.95;;
28862;SDS011;15994;51.796;13.006;2023-04-25T01:58:32;10.02;;;6.18;;
28862;SDS011;15994;51.796;13.006;2023-04-25T02:00:58;11.20;;;5.88;;
28862;SDS011;15994;51.796;13.006;2023-04-25T02:03:25;7.53;;;5.35;;
28862;SDS011;15994;51.796;13.006;2023-04-25T02:05:51;8.23;;;5.43;;
28862;SDS011;15994;51.796;13.006;2023-04-25T02:08:18;7.85;;;5.25;;
28862;SDS011;15994;51.796;13.006;2023-04-25T02:10:44;7.97;;;5.03;;
28862;SDS011;15994;51.796;13.006;2023-04-25T02:13:11;6.40;;;4.72;;
28862;SDS011;15994;51.796;13.006;2023-04-25T02:15:37;8.85;;;5.15;;
28862;SDS011;15994;51.796;13.006;2023-04-25T02:18:04;9.70;;;4.70;;
28862;SDS011;15994;51.796;13.006;2023-04-25T02:20:31;10.57;;;5.03;;
28862;SDS011;15994;51.796;13.006;2023-04-25T02:22:57;7.03;;;5.40;;
28862;SDS011;15994;51.796;13.006;2023-04-25T02:25:24;8.43;;;5.50;;
28862;SDS011;15994;51.796;13.006;2023-04-25T02:27:51;9.27;;;5.30;;
28862;SDS011;15994;51.796;13.006;2023-04-25T02:30:17;8.30;;;5.10;;
28862;SDS011;15994;51.796;13.006;2023-04-25T02:32:44;7.60;;;4.93;;
28862;SDS011;15994;51.796;13.006;2023-04-25T02:35:10;9.20;;;4.93;;
28862;SDS011;15994;51.796;13.006;2023-04-25T02:37:37;7.15;;;4.63;;
28862;SDS011;15994;51.796;13.006;2023-04-25T02:40:05;8.65;;;5.45;;
28862;SDS011;15994;51.796;13.006;2023-04-25T02:42:32;6.47;;;5.03;;
28862;SDS011;15994;51.796;13.006;2023-04-25T02:44:59;9.18;;;5.47;;
28862;SDS011;15994;51.796;13.006;2023-04-25T02:47:26;7.35;;;5.22;;
28862;SDS011;15994;51.796;13.006;2023-04-25T02:49:52;7.40;;;5.05;;
28862;SDS011;15994;51.796;13.006;2023-04-25T02:52:19;7.45;;;4.85;;
28862;SDS011;15994;51.796;13.006;2023-04-25T02:54:46;8.48;;;5.38;;
28862;SDS011;15994;51.796;13.006;2023-04-25T02:57:12;9.07;;;5.90;;
28862;SDS011;15994;51.796;13.006;2023-04-25T02:59:39;7.43;;;5.38;;
28862;SDS011;15994;51.796;13.006;2023-04-25T03:02:06;9.90;;;6.28;;
28862;SDS011;15994;51.796;13.006;2023-04-25T03:04:32;8.35;;;5.90;;
28862;SDS011;15994;51.796;13.006;2023-04-25T03:06:59;9.40;;;6.18;;
28862;SDS011;15994;51.796;13.006;2023-04-25T03:09:25;9.60;;;6.35;;
28862;SDS011;15994;51.796;13.006;2023-04-25T03:11:52;8.85;;;6.25;;
28862;SDS011;15994;51.796;13.006;2023-04-25T03:14:18;9.82;;;6.82;;
28862;SDS011;15994;51.796;13.006;2023-04-25T03:16:45;9.52;;;6.65;;
28862;SDS011;15994;51.796;13.006;2023-04-25T03:19:11;9.82;;;6.63;;
28862;SDS011;15994;51.796;13.006;2023-04-25T03:21:40;9.10;;;7.00;;
28862;SDS011;15994;51.796;13.006;2023-04-25T03:24:07;10.80;;;6.75;;
28862;SDS011;15994;51.796;13.006;2023-04-25T03:26:33;8.95;;;6.30;;
28862;SDS011;15994;51.796;13.006;2023-04-25T03:29:00;10.73;;;6.57;;
28862;SDS011;15994;51.796;13.006;2023-04-25T03:31:27;10.35;;;6.07;;
28862;SDS011;15994;51.796;13.006;2023-04-25T03:33:53;9.68;;;6.30;;
28862;SDS011;15994;51.796;13.006;2023-04-25T03:36:20;7.80;;;6.10;;
28862;SDS011;15994;51.796;13.006;2023-04-25T03:38:46;8.82;;;6.50;;
28862;SDS011;15994;51.796;13.006;2023-04-25T03:41:13;10.55;;;6.30;;
28862;SDS011;15994;51.796;13.006;2023-04-25T03:43:40;10.75;;;6.18;;
28862;SDS011;15994;51.796;13.006;2023-04-25T03:46:06;10.43;;;6.00;;
28862;SDS011;15994;51.796;13.006;2023-04-25T03:48:33;9.65;;;6.05;;
28862;SDS011;15994;51.796;13.006;2023-04-25T03:50:59;13.88;;;6.03;;
28862;SDS011;15994;51.796;13.006;2023-04-25T03:53:26;10.32;;;5.60;;
28862;SDS011;15994;51.796;13.006;2023-04-25T03:55:52;8.55;;;5.15;;
28862;SDS011;15994;51.796;13.006;2023-04-25T03:58:19;10.32;;;5.63;;
28862;SDS011;15994;51.796;13.006;2023-04-25T04:00:45;9.13;;;4.95;;
28862;SDS011;15994;51.796;13.006;2023-04-25T04:03:12;12.52;;;5.65;;
28862;SDS011;15994;51.796;13.006;2023-04-25T04:05:38;10.80;;;5.53;;
28862;SDS011;15994;51.796;13.006;2023-04-25T04:08:05;12.50;;;5.45;;
28862;SDS011;15994;51.796;13.006;2023-04-25T04:10:32;7.28;;;5.03;;
28862;SDS011;15994;51.796;13.006;2023-04-25T04:12:58;10.73;;;5.70;;
28862;SDS011;15994;51.796;13.006;2023-04-25T04:15:25;10.80;;;5.45;;
28862;SDS011;15994;51.796;13.006;2023-04-25T04:17:51;11.80;;;5.70;;
28862;SDS011;15994;51.796;13.006;2023-04-25T04:20:19;11.23;;;5.03;;
28862;SDS011;15994;51.796;13.006;2023-04-25T04:22:46;13.20;;;4.78;;
28862;SDS011;15994;51.796;13.006;2023-04-25T04:25:13;11.70;;;5.35;;
28862;SDS011;15994;51.796;13.006;2023-04-25T04:27:39;13.07;;;5.40;;
28862;SDS011;15994;51.796;13.006;2023-04-25T04:30:06;10.10;;;5.00;;
28862;SDS011;15994;51.796;13.006;2023-04-25T04:32:33;11.02;;;4.95;;
28862;SDS011;15994;51.796;13.006;2023-04-25T04:35:02;12.23;;;4.85;;
28862;SDS011;15994;51.796;13.006;2023-04-25T04:37:29;11.43;;;5.03;;
28862;SDS011;15994;51.796;13.006;2023-04-25T04:39:56;11.27;;;5.63;;
28862;SDS011;15994;51.796;13.006;2023-04-25T04:42:22;10.45;;;5.07;;
28862;SDS011;15994;51.796;13.006;2023-04-25T04:44:50;10.43;;;5.18;;
28862;SDS011;15994;51.796;13.006;2023-04-25T04:47:17;9.65;;;5.25;;
28862;SDS011;15994;51.796;13.006;2023-04-25T04:49:45;11.60;;;5.40;;
28862;SDS011;15994;51.796;13.006;2023-04-25T04:52:11;9.93;;;4.97;;
28862;SDS011;15994;51.796;13.006;2023-04-25T04:54:38;9.40;;;4.68;;
28862;SDS011;15994;51.796;13.006;2023-04-25T04:57:04;9.50;;;4.93;;
28862;SDS011;15994;51.796;13.006;2023-04-25T04:59:31;11.15;;;5.75;;
28862;SDS011;15994;51.796;13.006;2023-04-25T05:01:57;10.07;;;4.93;;
28862;SDS011;15994;51.796;13.006;2023-04-25T05:04:24;11.15;;;5.30;;
28862;SDS011;15994;51.796;13.006;2023-04-25T05:06:51;10.52;;;4.47;;
28862;SDS011;15994;51.796;13.006;2023-04-25T05:09:17;11.50;;;5.00;;
28862;SDS011;15994;51.796;13.006;2023-04-25T05:11:44;10.05;;;4.55;;
28862;SDS011;15994;51.796;13.006;2023-04-25T05:14:10;11.85;;;4.50;;
28862;SDS011;15994;51.796;13.006;2023-04-25T05:16:37;12.27;;;5.10;;
28862;SDS011;15994;51.796;13.006;2023-04-25T05:19:03;13.45;;;4.70;;
28862;SDS011;15994;51.796;13.006;2023-04-25T05:21:30;9.75;;;4.45;;
28862;SDS011;15994;51.796;13.006;2023-04-25T05:23:57;12.23;;;4.50;;
28862;SDS011;15994;51.796;13.006;2023-04-25T05:26:24;9.80;;;4.60;;
28862;SDS011;15994;51.796;13.006;2023-04-25T05:28:51;9.75;;;4.05;;
28862;SDS011;15994;51.796;13.006;2023-04-25T05:31:17;14.18;;;4.55;;
28862;SDS011;15994;51.796;13.006;2023-04-25T05:33:43;11.70;;;4.63;;
28862;SDS011;15994;51.796;13.006;2023-04-25T05:36:10;11.40;;;4.75;;
28862;SDS011;15994;51.796;13.006;2023-04-25T05:38:36;12.48;;;4.22;;
28862;SDS011;15994;51.796;13.006;2023-04-25T05:41:03;10.00;;;4.07;;
28862;SDS011;15994;51.796;13.006;2023-04-25T05:43:30;11.68;;;4.50;;
28862;SDS011;15994;51.796;13.006;2023-04-25T05:45:56;10.57;;;4.22;;
28862;SDS011;15994;51.796;13.006;2023-04-25T05:48:23;11.38;;;4.95;;
28862;SDS011;15994;51.796;13.006;2023-04-25T05:50:49;17.10;;;4.90;;
28862;SDS011;15994;51.796;13.006;2023-04-25T05:53:17;11.82;;;4.35;;
28862;SDS011;15994;51.796;13.006;2023-04-25T05:55:44;10.65;;;4.10;;
28862;SDS011;15994;51.796;13.006;2023-04-25T05:58:10;10.70;;;4.63;;
28862;SDS011;15994;51.796;13.006;2023-04-25T06:00:37;10.80;;;4.13;;
28862;SDS011;15994;51.796;13.006;2023-04-25T06:03:06;12.93;;;4.53;;
28862;SDS011;15994;51.796;13.006;2023-04-25T06:05:34;12.35;;;4.72;;
28862;SDS011;15994;51.796;13.006;2023-04-25T06:08:01;13.63;;;4.40;;
28862;SDS011;15994;51.796;13.006;2023-04-25T06:10:28;14.15;;;4.43;;
28862;SDS011;15994;51.796;13.006;2023-04-25T06:12:54;11.05;;;4.93;;
28862;SDS011;15994;51.796;13.006;2023-04-25T06:15:21;7.60;;;5.28;;
28862;SDS011;15994;51.796;13.006;2023-04-25T06:17:47;11.88;;;5.13;;
28862;SDS011;15994;51.796;13.006;2023-04-25T06:20:14;10.80;;;5.15;;
28862;SDS011;15994;51.796;13.006;2023-04-25T06:22:41;13.25;;;4.95;;
28862;SDS011;15994;51.796;13.006;2023-04-25T06:25:07;9.38;;;4.63;;
28862;SDS011;15994;51.796;13.006;2023-04-25T06:27:34;9.65;;;4.68;;
28862;SDS011;15994;51.796;13.006;2023-04-25T06:30:00;15.93;;;5.13;;
28862;SDS011;15994;51.796;13.006;2023-04-25T06:32:27;11.90;;;5.13;;
28862;SDS011;15994;51.796;13.006;2023-04-25T06:34:54;9.13;;;4.72;;
28862;SDS011;15994;51.796;13.006;2023-04-25T06:37:21;16.35;;;5.38;;
28862;SDS011;15994;51.796;13.006;2023-04-25T06:39:47;11.38;;;5.15;;
28862;SDS011;15994;51.796;13.006;2023-04-25T06:42:14;14.10;;;5.13;;
28862;SDS011;15994;51.796;13.006;2023-04-25T06:44:41;11.43;;;4.93;;
28862;SDS011;15994;51.796;13.006;2023-04-25T06:47:07;15.23;;;5.82;;
28862;SDS011;15994;51.796;13.006;2023-04-25T06:49:34;11.15;;;5.32;;
28862;SDS011;15994;51.796;13.006;2023-04-25T06:52:00;12.38;;;5.88;;
28862;SDS011;15994;51.796;13.006;2023-04-25T06:54:27;14.70;;;6.70;;
28862;SDS011;15994;51.796;13.006;2023-04-25T06:56:55;11.05;;;5.60;;
28862;SDS011;15994;51.796;13.006;2023-04-25T06:59:22;13.30;;;5.82;;
28862;SDS011;15994;51.796;13.006;2023-04-25T07:01:48;13.55;;;6.50;;
28862;SDS011;15994;51.796;13.006;2023-04-25T07:04:15;11.25;;;5.85;;
28862;SDS011;15994;51.796;13.006;2023-04-25T07:06:41;16.13;;;6.38;;
28862;SDS011;15994;51.796;13.006;2023-04-25T07:09:08;14.50;;;7.05;;
28862;SDS011;15994;51.796;13.006;2023-04-25T07:11:35;12.27;;;7.15;;
28862;SDS011;15994;51.796;13.006;2023-04-25T07:14:02;15.32;;;7.45;;
28862;SDS011;15994;51.796;13.006;2023-04-25T07:16:29;11.75;;;7.43;;
28862;SDS011;15994;51.796;13.006;2023-04-25T07:18:55;11.45;;;6.82;;
28862;SDS011;15994;51.796;13.006;2023-04-25T07:21:22;12.25;;;7.47;;
28862;SDS011;15994;51.796;13.006;2023-04-25T07:23:48;10.80;;;6.20;;
28862;SDS011;15994;51.796;13.006;2023-04-25T07:26:15;11.23;;;6.20;;
28862;SDS011;15994;51.796;13.006;2023-04-25T07:28:41;14.05;;;6.78;;
28862;SDS011;15994;51.796;13.006;2023-04-25T07:31:08;12.60;;;6.13;;
28862;SDS011;15994;51.796;13.006;2023-04-25T07:33:35;12.05;;;5.70;;
28862;SDS011;15994;51.796;13.006;2023-04-25T07:36:02;9.30;;;6.22;;
28862;SDS011;15994;51.796;13.006;2023-04-25T07:38:28;10.27;;;6.30;;
28862;SDS011;15994;51.796;13.006;2023-04-25T07:40:55;12.32;;;6.45;;
28862;SDS011;15994;51.796;13.006;2023-04-25T07:43:21;14.93;;;7.10;;
28862;SDS011;15994;51.796;13.006;2023-04-25T07:45:48;11.35;;;5.80;;
28862;SDS011;15994;51.796;13.006;2023-04-25T07:48:17;13.77;;;6.38;;
28862;SDS011;15994;51.796;13.006;2023-04-25T07:50:44;11.95;;;6.30;;
28862;SDS011;15994;51.796;13.006;2023-04-25T07:53:11;12.60;;;5.93;;
28862;SDS011;15994;51.796;13.006;2023-04-25T07:55:38;13.38;;;5.90;;
28862;SDS011;15994;51.796;13.006;2023-04-25T07:58:05;12.00;;;6.20;;
28862;SDS011;15994;51.796;13.006;2023-04-25T08:00:32;14.45;;;5.97;;
28862;SDS011;15994;51.796;13.006;2023-04-25T08:02:59;13.63;;;6.40;;
28862;SDS011;15994;51.796;13.006;2023-04-25T08:05:26;10.68;;;6.32;;
28862;SDS011;15994;51.796;13.006;2023-04-25T08:07:52;16.23;;;6.03;;
28862;SDS011;15994;51.796;13.006;2023-04-25T08:10:19;12.93;;;5.47;;
28862;SDS011;15994;51.796;13.006;2023-04-25T08:12:47;12.55;;;5.88;;
28862;SDS011;15994;51.796;13.006;2023-04-25T08:15:14;10.23;;;5.28;;
28862;SDS011;15994;51.796;13.006;2023-04-25T08:17:40;8.70;;;5.97;;
28862;SDS011;15994;51.796;13.006;2023-04-25T08:20:08;11.70;;;5.75;;
28862;SDS011;15994;51.796;13.006;2023-04-25T08:22:35;11.32;;;5.60;;
28862;SDS011;15994;51.796;13.006;2023-04-25T08:25:02;9.43;;;5.05;;
28862;SDS011;15994;51.796;13.006;2023-04-25T08:27:29;10.43;;;5.30;;
28862;SDS011;15994;51.796;13.006;2023-04-25T08:29:55;12.75;;;6.38;;
28862;SDS011;15994;51.796;13.006;2023-04-25T08:32:23;14.95;;;6.60;;
28862;SDS011;15994;51.796;13.006;2023-04-25T08:34:50;12.75;;;6.18;;
28862;SDS011;15994;51.796;13.006;2023-04-25T08:37:19;13.48;;;6.13;;
28862;SDS011;15994;51.796;13.006;2023-04-25T08:39:45;10.75;;;5.07;;
28862;SDS011;15994;51.796;13.006;2023-04-25T08:42:13;8.60;;;4.85;;
28862;SDS011;15994;51.796;13.006;2023-04-25T08:44:41;11.10;;;4.85;;
28862;SDS011;15994;51.796;13.006;2023-04-25T08:47:07;9.80;;;4.35;;
28862;SDS011;15994;51.796;13.006;2023-04-25T08:49:34;9.43;;;4.70;;
28862;SDS011;15994;51.796;13.006;2023-04-25T08:52:02;11.50;;;5.20;;
28862;SDS011;15994;51.796;13.006;2023-04-25T08:54:30;9.10;;;4.10;;
28862;SDS011;15994;51.796;13.006;2023-04-25T08:56:57;10.55;;;4.60;;
28862;SDS011;15994;51.796;13.006;2023-04-25T08:59:29;9.02;;;4.13;;
28862;SDS011;15994;51.796;13.006;2023-04-25T09:01:56;8.20;;;3.20;;
28862;SDS011;15994;51.796;13.006;2023-04-25T09:04:23;10.05;;;3.05;;
28862;SDS011;15994;51.796;13.006;2023-04-25T09:06:50;10.05;;;2.80;;
28862;SDS011;15994;51.796;13.006;2023-04-25T09:09:17;8.90;;;2.80;;
28862;SDS011;15994;51.796;13.006;2023-04-25T09:11:43;11.15;;;2.50;;
28862;SDS011;15994;51.796;13.006;2023-04-25T09:16:40;10.90;;;2.50;;
28862;SDS011;15994;51.796;13.006;2023-04-25T09:19:28;11.77;;;2.30;;
28862;SDS011;15994;51.796;13.006;2023-04-25T09:22:01;14.80;;;2.70;;
28862;SDS011;15994;51.796;13.006;2023-04-25T09:24:32;8.48;;;1.92;;
28862;SDS011;15994;51.796;13.006;2023-04-25T09:27:07;8.23;;;1.95;;
28862;SDS011;15994;51.796;13.006;2023-04-25T09:29:36;13.25;;;2.67;;
28862;SDS011;15994;51.796;13.006;2023-04-25T09:32:10;13.35;;;2.50;;
28862;SDS011;15994;51.796;13.006;2023-04-25T09:34:42;15.48;;;3.13;;
28862;SDS011;15994;51.796;13.006;2023-04-25T09:37:18;9.38;;;2.17;;
28862;SDS011;15994;51.796;13.006;2023-04-25T09:39:47;10.48;;;2.83;;
28862;SDS011;15994;51.796;13.006;2023-04-25T09:42:21;12.75;;;2.80;;
28862;SDS011;15994;51.796;13.006;2023-04-25T09:44:49;9.98;;;2.53;;
28862;SDS011;15994;51.796;13.006;2023-04-25T09:47:18;12.07;;;2.72;;
28862;SDS011;15994;51.796;13.006;2023-04-25T09:49:46;16.67;;;2.80;;
28862;SDS011;15994;51.796;13.006;2023-04-25T09:52:14;11.57;;;2.75;;
28862;SDS011;15994;51.796;13.006;2023-04-25T09:54:45;17.95;;;3.20;;
28862;SDS011;15994;51.796;13.006;2023-04-25T09:57:16;14.85;;;2.90;;
28862;SDS011;15994;51.796;13.006;2023-04-25T09:59:48;12.52;;;2.80;;
28862;SDS011;15994;51.796;13.006;2023-04-25T10:02:16;13.13;;;2.83;;
28862;SDS011;15994;51.796;13.006;2023-04-25T10:04:46;13.07;;;2.63;;
28862;SDS011;15994;51.796;13.006;2023-04-25T10:07:16;13.32;;;2.75;;
28862;SDS011;15994;51.796;13.006;2023-04-25T10:09:43;12.75;;;2.67;;
28862;SDS011;15994;51.796;13.006;2023-04-25T10:12:14;15.20;;;2.78;;
28862;SDS011;15994;51.796;13.006;2023-04-25T10:14:42;11.05;;;2.70;;
28862;SDS011;15994;51.796;13.006;2023-04-25T10:17:10;13.57;;;2.70;;
28862;SDS011;15994;51.796;13.006;2023-04-25T10:19:37;13.25;;;3.17;;
28862;SDS011;15994;51.796;13.006;2023-04-25T10:24:35;13.23;;;3.00;;
28862;SDS011;15994;51.796;13.006;2023-04-25T10:27:02;11.43;;;3.28;;
28862;SDS011;15994;51.796;13.006;2023-04-25T10:29:30;14.88;;;3.15;;
28862;SDS011;15994;51.796;13.006;2023-04-25T10:31:56;15.15;;;3.28;;
28862;SDS011;15994;51.796;13.006;2023-04-25T10:34:24;12.30;;;3.33;;
28862;SDS011;15994;51.796;13.006;2023-04-25T10:37:04;15.55;;;3.03;;
28862;SDS011;15994;51.796;13.006;2023-04-25T10:39:32;20.75;;;3.35;;
28862;SDS011;15994;51.796;13.006;2023-04-25T10:41:59;11.20;;;3.05;;
28862;SDS011;15994;51.796;13.006;2023-04-25T10:44:28;12.07;;;3.20;;
28862;SDS011;15994;51.796;13.006;2023-04-25T10:46:56;12.20;;;2.88;;
28862;SDS011;15994;51.796;13.006;2023-04-25T10:52:15;16.48;;;3.53;;
28862;SDS011;15994;51.796;13.006;2023-04-25T10:55:02;11.18;;;2.90;;
28862;SDS011;15994;51.796;13.006;2023-04-25T11:02:43;13.93;;;2.83;;
28862;SDS011;15994;51.796;13.006;2023-04-25T11:05:33;15.43;;;3.38;;
28862;SDS011;15994;51.796;13.006;2023-04-25T11:08:08;16.02;;;3.03;;
28862;SDS011;15994;51.796;13.006;2023-04-25T11:10:38;12.10;;;2.95;;
28862;SDS011;15994;51.796;13.006;2023-04-25T11:13:06;10.80;;;2.83;;
28862;SDS011;15994;51.796;13.006;2023-04-25T11:15:32;11.35;;;3.15;;
28862;SDS011;15994;51.796;13.006;2023-04-25T11:17:59;11.82;;;2.67;;
28862;SDS011;15994;51.796;13.006;2023-04-25T11:20:25;13.30;;;2.78;;
28862;SDS011;15994;51.796;13.006;2023-04-25T11:22:53;15.50;;;2.88;;
28862;SDS011;15994;51.796;13.006;2023-04-25T11:25:22;13.00;;;3.30;;
28862;SDS011;15994;51.796;13.006;2023-04-25T11:30:22;13.88;;;3.13;;
28862;SDS011;15994;51.796;13.006;2023-04-25T11:32:49;12.30;;;2.90;;
28862;SDS011;15994;51.796;13.006;2023-04-25T11:35:17;12.85;;;2.95;;
28862;SDS011;15994;51.796;13.006;2023-04-25T11:37:44;12.90;;;2.72;;
28862;SDS011;15994;51.796;13.006;2023-04-25T11:40:11;16.33;;;3.28;;
28862;SDS011;15994;51.796;13.006;2023-04-25T11:42:44;15.95;;;3.00;;
28862;SDS011;15994;51.796;13.006;2023-04-25T11:45:12;11.52;;;2.58;;
28862;SDS011;15994;51.796;13.006;2023-04-25T11:47:39;14.65;;;3.03;;
28862;SDS011;15994;51.796;13.006;2023-04-25T11:50:06;11.48;;;2.67;;
28862;SDS011;15994;51.796;13.006;2023-04-25T11:52:43;11.98;;;3.03;;
28862;SDS011;15994;51.796;13.006;2023-04-25T11:55:14;14.07;;;2.47;;
28862;SDS011;15994;51.796;13.006;2023-04-25T11:57:43;15.65;;;2.85;;
28862;SDS011;15994;51.796;13.006;2023-04-25T12:02:43;12.25;;;2.60;;
28862;SDS011;15994;51.796;13.006;2023-04-25T12:05:12;12.93;;;2.78;;
28862;SDS011;15994;51.796;13.006;2023-04-25T12:07:41;11.18;;;2.50;;
28862;SDS011;15994;51.796;13.006;2023-04-25T12:10:09;9.70;;;2.35;;
28862;SDS011;15994;51.796;13.006;2023-04-25T12:12:37;11.95;;;2.60;;
28862;SDS011;15994;51.796;13.006;2023-04-25T12:15:13;11.38;;;2.13;;
28862;SDS011;15994;51.796;13.006;2023-04-25T12:17:44;10.65;;;2.40;;
28862;SDS011;15994;51.796;13.006;2023-04-25T12:20:13;11.77;;;2.63;;
28862;SDS011;15994;51.796;13.006;2023-04-25T12:22:44;9.00;;;2.80;;
28862;SDS011;15994;51.796;13.006;2023-04-25T12:25:13;13.98;;;2.55;;
28862;SDS011;15994;51.796;13.006;2023-04-25T12:28:18;11.60;;;2.50;;
28862;SDS011;15994;51.796;13.006;2023-04-25T12:30:53;13.07;;;2.53;;
28862;SDS011;15994;51.796;13.006;2023-04-25T12:33:20;10.15;;;2.53;;
28862;SDS011;15994;51.796;13.006;2023-04-25T12:35:47;12.50;;;2.45;;
28862;SDS011;15994;51.796;13.006;2023-04-25T12:38:23;14.50;;;3.03;;
28862;SDS011;15994;51.796;13.006;2023-04-25T12:40:55;10.80;;;2.05;;
28862;SDS011;15994;51.796;13.006;2023-04-25T12:43:22;15.20;;;2.72;;
28862;SDS011;15994;51.796;13.006;2023-04-25T12:45:49;13.23;;;2.83;;
28862;SDS011;15994;51.796;13.006;2023-04-25T12:48:20;9.70;;;2.40;;
28862;SDS011;15994;51.796;13.006;2023-04-25T12:50:48;9.80;;;2.30;;
28862;SDS011;15994;51.796;13.006;2023-04-25T12:53:16;13.15;;;3.63;;
28862;SDS011;15994;51.796;13.006;2023-04-25T12:55:43;9.27;;;1.90;;
28862;SDS011;15994;51.796;13.006;2023-04-25T12:58:10;12.10;;;2.55;;
28862;SDS011;15994;51.796;13.006;2023-04-25T13:00:37;12.55;;;2.40;;
28862;SDS011;15994;51.796;13.006;2023-04-25T13:03:04;13.80;;;2.60;;
28862;SDS011;15994;51.796;13.006;2023-04-25T13:05:30;11.88;;;2.38;;
28862;SDS011;15994;51.796;13.006;2023-04-25T13:07:57;8.57;;;2.33;;
28862;SDS011;15994;51.796;13.006;2023-04-25T13:10:24;7.38;;;2.00;;
28862;SDS011;15994;51.796;13.006;2023-04-25T13:12:50;11.20;;;2.25;;
28862;SDS011;15994;51.796;13.006;2023-04-25T13:15:17;7.13;;;2.30;;
28862;SDS011;15994;51.796;13.006;2023-04-25T13:17:43;8.85;;;2.22;;
28862;SDS011;15994;51.796;13.006;2023-04-25T13:20:10;12.50;;;2.40;;
28862;SDS011;15994;51.796;13.006;2023-04-25T13:22:39;7.45;;;2.00;;
28862;SDS011;15994;51.796;13.006;2023-04-25T13:25:07;7.68;;;2.05;;
28862;SDS011;15994;51.796;13.006;2023-04-25T13:27:34;7.88;;;1.92;;
28862;SDS011;15994;51.796;13.006;2023-04-25T13:30:03;6.38;;;1.85;;
28862;SDS011;15994;51.796;13.006;2023-04-25T13:32:35;7.65;;;2.03;;
28862;SDS011;15994;51.796;13.006;2023-04-25T13:35:03;9.55;;;2.25;;
28862;SDS011;15994;51.796;13.006;2023-04-25T13:37:37;7.75;;;2.10;;
28862;SDS011;15994;51.796;13.006;2023-04-25T13:40:05;11.23;;;2.08;;
28862;SDS011;15994;51.796;13.006;2023-04-25T13:42:34;9.35;;;2.13;;
28862;SDS011;15994;51.796;13.006;2023-04-25T13:45:01;12.32;;;1.98;;
28862;SDS011;15994;51.796;13.006;2023-04-25T13:47:28;11.32;;;2.38;;
28862;SDS011;15994;51.796;13.006;2023-04-25T13:49:56;9.77;;;2.22;;
28862;SDS011;15994;51.796;13.006;2023-04-25T13:52:22;9.50;;;2.33;;
28862;SDS011;15994;51.796;13.006;2023-04-25T13:54:50;8.35;;;2.80;;
28862;SDS011;15994;51.796;13.006;2023-04-25T13:57:17;7.68;;;2.10;;
28862;SDS011;15994;51.796;13.006;2023-04-25T13:59:44;7.43;;;2.28;;
28862;SDS011;15994;51.796;13.006;2023-04-25T14:02:11;7.63;;;2.40;;
28862;SDS011;15994;51.796;13.006;2023-04-25T14:04:38;9.48;;;2.70;;
28862;SDS011;15994;51.796;13.006;2023-04-25T14:07:05;11.63;;;2.40;;
28862;SDS011;15994;51.796;13.006;2023-04-25T14:09:32;10.95;;;2.10;;
28862;SDS011;15994;51.796;13.006;2023-04-25T14:11:59;6.88;;;2.35;;
28862;SDS011;15994;51.796;13.006;2023-04-25T14:14:29;8.85;;;2.08;;
28862;SDS011;15994;51.796;13.006;2023-04-25T14:16:56;8.27;;;2.33;;
28862;SDS011;15994;51.796;13.006;2023-04-25T14:19:23;9.38;;;2.20;;
28862;SDS011;15994;51.796;13.006;2023-04-25T14:21:49;9.43;;;2.58;;
28862;SDS011;15994;51.796;13.006;2023-04-25T14:24:16;6.18;;;2.25;;
28862;SDS011;15994;51.796;13.006;2023-04-25T14:26:43;11.07;;;2.20;;
28862;SDS011;15994;51.796;13.006;2023-04-25T14:29:09;13.48;;;2.65;;
28862;SDS011;15994;51.796;13.006;2023-04-25T14:31:37;10.32;;;2.20;;
28862;SDS011;15994;51.796;13.006;2023-04-25T14:34:04;8.07;;;2.00;;
28862;SDS011;15994;51.796;13.006;2023-04-25T14:36:31;7.60;;;1.90;;
28862;SDS011;15994;51.796;13.006;2023-04-25T14:38:58;7.55;;;1.80;;
28862;SDS011;15994;51.796;13.006;2023-04-25T14:41:25;6.38;;;1.83;;
28862;SDS011;15994;51.796;13.006;2023-04-25T14:43:52;8.80;;;2.05;;
28862;SDS011;15994;51.796;13.006;2023-04-25T14:46:19;10.82;;;2.05;;